• Join FlightAware (Why Join?)
  • Login
  • US Flag 
02:03PM EDT


 

Airport Tracker/Info


-or-


 

Live Flight TrackerFlight Track Log ✈ TAM3447 ✈ 28-Apr-2013 ✈ SBBE / BEL - SBBR / BSB

Flight Track Log - Related Links

Times and Time Zones

All times are in EDT time to prevent confusion due to time zone crossing. See the TAM3447 flight status page for this flight to view local times or setup timezone preferences in your user account.

Time Position Orientation Groundspeed Altitude Reporting Facility
EDT Latitude Longitude Course Direction KTS MPH feet Rate Location/Type
08:14PM -9.1898 -48.1779 178° South  Level Estimated
08:15PM -9.2926 -48.1739 178° South  Level Estimated
08:16PM -9.3953 -48.1699 178° South  Level Estimated
08:17PM -9.4981 -48.1659 178° South  Level Estimated
08:18PM -9.6009 -48.1619 178° South  Level Estimated
08:19PM -9.7036 -48.1579 178° South  Level Estimated
08:20PM -9.8064 -48.1539 178° South  Level Estimated
08:21PM -9.9092 -48.1499 178° South  Level Estimated
08:22PM -10.0119 -48.1459 178° South  Level Estimated
08:23PM -10.1147 -48.1419 178° South  Level Estimated
08:24PM -10.2175 -48.1379 178° South  Level Estimated
08:25PM -10.3202 -48.1339 178° South  Level Estimated
08:26PM -10.4230 -48.1298 178° South  Level Estimated
08:27PM -10.5258 -48.1258 178° South  Level Estimated
08:28PM -10.6286 -48.1218 178° South  Level Estimated
08:29PM -10.7313 -48.1178 178° South  Level Estimated
08:30PM -10.8341 -48.1137 178° South  Level Estimated
08:31PM -10.9369 -48.1097 178° South  Level Estimated
08:32PM -11.0396 -48.1057 178° South  Level Estimated
08:33PM -11.1424 -48.1016 178° South  Level Estimated
08:34PM -11.2452 -48.0976 178° South  Level Estimated
08:35PM -11.3479 -48.0936 178° South  Level Estimated
08:36PM -11.4507 -48.0895 178° South  Level Estimated
08:37PM -11.5535 -48.0855 178° South  Level Estimated
08:38PM -11.6563 -48.0814 178° South  Level Estimated
08:39PM -11.7590 -48.0774 178° South  Level Estimated
08:40PM -11.8618 -48.0733 178° South  Level Estimated
08:41PM -11.9646 -48.0692 178° South  Level Estimated
08:42PM -12.0673 -48.0652 178° South  Level Estimated
08:43PM -12.1701 -48.0611 178° South  Level Estimated
08:44PM -12.2729 -48.0570 178° South  Level Estimated
08:45PM -12.3757 -48.0530 178° South  Level Estimated
08:46PM -12.4784 -48.0489 178° South  Level Estimated
08:47PM -12.5812 -48.0448 178° South  Level Estimated
08:48PM -12.6840 -48.0407 178° South  Level Estimated
08:49PM -12.7867 -48.0366 178° South  Level Estimated
08:50PM -12.8895 -48.0326 178° South  Level Estimated
08:51PM -12.9923 -48.0285 178° South  Level Estimated
08:52PM -13.0950 -48.0244 178° South  Level Estimated
08:53PM -13.1978 -48.0203 178° South  Level Estimated
08:54PM -13.3006 -48.0162 178° South  Level Estimated
08:55PM -13.4033 -48.0121 178° South  Level Estimated
08:56PM -13.5061 -48.0079 178° South  Level Estimated
08:57PM -13.6089 -48.0038 178° South  Level Estimated
08:58PM -13.7117 -47.9997 178° South  Level Estimated
08:59PM -13.8144 -47.9956 178° South  Level Estimated
09:00PM -13.9172 -47.9915 178° South  Level Estimated
09:01PM -14.0200 -47.9873 178° South  Level Estimated
09:02PM -14.1227 -47.9832 178° South  Level Estimated
09:03PM -14.2255 -47.9791 178° South  Level Estimated
09:04PM -14.3283 -47.9749 178° South  Level Estimated
09:05PM -14.4311 -47.9708 178° South  Level Estimated
09:06PM -14.5338 -47.9666 178° South  Level Estimated
09:07PM -14.6366 -47.9625 178° South  Level Estimated
09:08PM -14.7394 -47.9583 178° South  Level Estimated
09:09PM -14.8421 -47.9542 178° South  Level Estimated
09:10PM -14.9449 -47.9500 178° South  Level Estimated
09:11PM -15.0477 -47.9459 178° South  Level Estimated
09:12PM -15.1504 -47.9417 178° South  Level Estimated
09:13PM -15.2532 -47.9375 178° South  Level Estimated
09:14PM -15.3560 -47.9333 178° South  Level Estimated
09:15PM -15.4587 -47.9291 178° South  Level Estimated
09:16PM -15.5615 -47.9250 178° South  Level Estimated
09:17PM -15.6643 -47.9208 178° South  Level Estimated
09:18PM -15.7670 -47.9166 178° South  Level Estimated
09:19PM -15.8626 -47.9127 178° South  Level Estimated
09:20PM -15.8626 -47.9127 128° Southeast  Level Estimated
09:21PM -15.8626 -47.9127 128° Southeast  Level Estimated
09:22PM -15.8626 -47.9127 128° Southeast  Level Estimated
09:23PM -15.8626 -47.9127 128° Southeast  Level Estimated
09:24PM -15.8626 -47.9127 128° Southeast  Level Estimated
09:25PM -15.8626 -47.9127 128° Southeast  Level Estimated
09:26PM -15.8626 -47.9127 128° Southeast  Level Estimated
09:27PM -15.8626 -47.9127 128° Southeast  Level Estimated
09:28PM -15.8626 -47.9127 128° Southeast  Level Estimated
09:29PM -15.8626 -47.9127 128° Southeast  Level Estimated
09:30PM -15.8626 -47.9127 128° Southeast  Level Estimated
09:31PM -15.8626 -47.9127 128° Southeast  Level Estimated
09:32PM -15.8626 -47.9127 128° Southeast  Level Estimated
09:33PM -15.8626 -47.9127 128° Southeast  Level Estimated
09:34PM -15.8626 -47.9127 128° Southeast  Level Estimated
09:35PM -15.8626 -47.9127 128° Southeast  Level Estimated